createdAt,value
2016-12-24T00:00:09.334Z,1017.47
2016-12-24T00:00:18.993Z,1017.62
2016-12-24T00:00:28.987Z,1017.52
2016-12-24T00:00:38.982Z,1017.5
2016-12-24T00:00:48.977Z,1017.51
2016-12-24T00:00:58.971Z,1017.51
2016-12-24T00:01:08.966Z,1017.52
2016-12-24T00:01:18.957Z,1017.55
2016-12-24T00:01:28.948Z,1017.59
2016-12-24T00:01:38.942Z,1017.56
2016-12-24T00:01:48.938Z,1017.52
2016-12-24T00:01:58.931Z,1017.51
2016-12-24T00:02:08.929Z,1017.51
2016-12-24T00:02:18.919Z,1017.46
2016-12-24T00:02:28.912Z,1017.49
2016-12-24T00:02:38.907Z,1017.4
2016-12-24T00:02:48.897Z,1017.5
2016-12-24T00:02:58.893Z,1017.54
2016-12-24T00:03:08.887Z,1017.53
2016-12-24T00:03:18.885Z,1017.43
2016-12-24T00:03:28.876Z,1017.33
2016-12-24T00:03:38.864Z,1017.39
2016-12-24T00:03:49.196Z,1017.38
2016-12-24T00:03:58.857Z,1017.39
2016-12-24T00:04:08.850Z,1017.38
2016-12-24T00:04:18.843Z,1017.33
2016-12-24T00:04:28.837Z,1017.35
2016-12-24T00:04:38.835Z,1017.4
2016-12-24T00:04:48.824Z,1017.43
2016-12-24T00:04:58.820Z,1017.36
2016-12-24T00:05:08.812Z,1017.39
2016-12-24T00:05:18.806Z,1017.42
2016-12-24T00:05:28.796Z,1017.53
2016-12-24T00:05:38.795Z,1017.38
2016-12-24T00:05:48.787Z,1017.45
2016-12-24T00:05:58.779Z,1017.45
2016-12-24T00:06:08.773Z,1017.38
2016-12-24T00:06:18.764Z,1017.34
2016-12-24T00:06:28.760Z,1017.32
2016-12-24T00:06:38.757Z,1017.38
2016-12-24T00:06:48.746Z,1017.41
2016-12-24T00:06:58.743Z,1017.48
2016-12-24T00:07:08.737Z,1017.39
2016-12-24T00:07:18.730Z,1017.49
2016-12-24T00:07:28.723Z,1017.39
2016-12-24T00:07:38.715Z,1017.39
2016-12-24T00:07:48.709Z,1017.47
2016-12-24T00:07:58.703Z,1017.43
2016-12-24T00:08:08.697Z,1017.45
2016-12-24T00:08:18.692Z,1017.42
2016-12-24T00:08:28.684Z,1017.4
2016-12-24T00:08:38.678Z,1017.38
2016-12-24T00:08:48.669Z,1017.41
2016-12-24T00:08:58.668Z,1017.39
2016-12-24T00:09:08.659Z,1017.4
2016-12-24T00:09:18.654Z,1017.38
2016-12-24T00:09:28.648Z,1017.36
2016-12-24T00:09:38.639Z,1017.29
2016-12-24T00:09:48.634Z,1017.4
2016-12-24T00:09:58.624Z,1017.37
2016-12-24T00:10:08.623Z,1017.34
2016-12-24T00:10:18.617Z,1017.31
2016-12-24T00:10:28.608Z,1017.39
2016-12-24T00:10:38.603Z,1017.31
2016-12-24T00:10:48.594Z,1017.22
2016-12-24T00:10:58.592Z,1017.32
2016-12-24T00:11:08.582Z,1017.4
2016-12-24T00:11:18.577Z,1017.27
2016-12-24T00:11:28.571Z,1017.31
2016-12-24T00:11:38.566Z,1017.39
2016-12-24T00:11:48.554Z,1017.33
2016-12-24T00:11:58.551Z,1017.35
2016-12-24T00:12:08.545Z,1017.33
2016-12-24T00:12:18.537Z,1017.31
2016-12-24T00:12:28.533Z,1017.33
2016-12-24T00:12:38.524Z,1017.29
2016-12-24T00:12:48.522Z,1017.35
2016-12-24T00:12:58.514Z,1017.31
2016-12-24T00:13:08.504Z,1017.42
2016-12-24T00:13:18.497Z,1017.41
2016-12-24T00:13:28.496Z,1017.37
2016-12-24T00:13:38.489Z,1017.37
2016-12-24T00:13:48.484Z,1017.42
2016-12-24T00:13:58.476Z,1017.35
2016-12-24T00:14:08.468Z,1017.4
2016-12-24T00:14:18.462Z,1017.35
2016-12-24T00:14:28.458Z,1017.32
2016-12-24T00:14:38.448Z,1017.36
2016-12-24T00:14:48.443Z,1017.36
2016-12-24T00:14:58.434Z,1017.32
2016-12-24T00:15:08.432Z,1017.38
2016-12-24T00:15:18.423Z,1017.39
2016-12-24T00:15:28.419Z,1017.37
2016-12-24T00:15:38.410Z,1017.4
2016-12-24T00:15:48.406Z,1017.4
2016-12-24T00:15:58.401Z,1017.57
2016-12-24T00:16:08.412Z,1017.3
2016-12-24T00:16:18.383Z,1017.35
2016-12-24T00:16:28.380Z,1017.47
2016-12-24T00:16:38.374Z,1017.42
2016-12-24T00:16:48.369Z,1017.43
2016-12-24T00:16:58.360Z,1017.4
2016-12-24T00:17:08.360Z,1017.36
2016-12-24T00:17:18.350Z,1017.54
2016-12-24T00:17:28.340Z,1017.55
2016-12-24T00:17:38.336Z,1017.42
2016-12-24T00:17:48.332Z,1017.37
2016-12-24T00:17:58.323Z,1017.39
2016-12-24T00:18:08.316Z,1017.39
2016-12-24T00:18:18.308Z,1017.39
2016-12-24T00:18:28.305Z,1017.42
2016-12-24T00:18:38.300Z,1017.4
2016-12-24T00:18:48.294Z,1017.4
2016-12-24T00:18:58.285Z,1017.34
2016-12-24T00:19:08.274Z,1017.3
2016-12-24T00:19:18.608Z,1017.33
2016-12-24T00:19:28.263Z,1017.37
2016-12-24T00:19:38.258Z,1017.42
2016-12-24T00:19:48.253Z,1017.31
2016-12-24T00:19:58.251Z,1017.34
2016-12-24T00:20:08.241Z,1017.48
2016-12-24T00:20:18.236Z,1017.45
2016-12-24T00:20:28.228Z,1017.35
2016-12-24T00:20:38.220Z,1017.39
2016-12-24T00:20:48.213Z,1017.36
2016-12-24T00:20:58.213Z,1017.36
2016-12-24T00:21:08.202Z,1017.36
2016-12-24T00:21:18.197Z,1017.46
2016-12-24T00:21:28.189Z,1017.4
2016-12-24T00:21:38.179Z,1017.36
2016-12-24T00:21:48.176Z,1017.42
2016-12-24T00:21:58.170Z,1017.45
2016-12-24T00:22:08.163Z,1017.37
2016-12-24T00:22:18.159Z,1017.4
2016-12-24T00:22:28.153Z,1017.4
2016-12-24T00:22:38.144Z,1017.49
2016-12-24T00:22:48.137Z,1017.36
2016-12-24T00:22:58.131Z,1017.43
2016-12-24T00:23:08.126Z,1017.35
2016-12-24T00:23:18.118Z,1017.38
2016-12-24T00:23:28.114Z,1017.35
2016-12-24T00:23:38.106Z,1017.33
2016-12-24T00:23:48.103Z,1017.42
2016-12-24T00:23:58.092Z,1017.37
2016-12-24T00:24:08.085Z,1017.37
2016-12-24T00:24:18.079Z,1017.41
2016-12-24T00:24:28.075Z,1017.42
2016-12-24T00:24:38.066Z,1017.47
2016-12-24T00:24:48.061Z,1017.41
2016-12-24T00:24:58.056Z,1017.34
2016-12-24T00:25:08.050Z,1017.45
2016-12-24T00:25:18.041Z,1017.4
2016-12-24T00:25:28.036Z,1017.37
2016-12-24T00:25:38.367Z,1017.34
2016-12-24T00:25:48.023Z,1017.35
2016-12-24T00:25:58.021Z,1017.35
2016-12-24T00:26:08.013Z,1017.39
2016-12-24T00:26:18.005Z,1017.43
2016-12-24T00:26:27.996Z,1017.43
2016-12-24T00:26:37.992Z,1017.41
2016-12-24T00:26:47.986Z,1017.43
2016-12-24T00:26:57.982Z,1017.33
2016-12-24T00:27:07.977Z,1017.36
2016-12-24T00:27:17.968Z,1017.37
2016-12-24T00:27:27.960Z,1017.38
2016-12-24T00:27:37.957Z,1017.28
2016-12-24T00:27:47.972Z,1017.36
2016-12-24T00:27:57.942Z,1017.34
2016-12-24T00:28:07.936Z,1017.32
2016-12-24T00:28:17.932Z,1017.33
2016-12-24T00:28:27.925Z,1017.34
2016-12-24T00:28:37.919Z,1017.29
2016-12-24T00:28:47.911Z,1017.35
2016-12-24T00:28:57.899Z,1017.4
2016-12-24T00:29:07.900Z,1017.41
2016-12-24T00:29:17.892Z,1017.4
2016-12-24T00:29:27.888Z,1017.36
2016-12-24T00:29:37.882Z,1017.34
2016-12-24T00:29:47.875Z,1017.4
2016-12-24T00:29:57.866Z,1017.34
2016-12-24T00:30:07.860Z,1017.4
2016-12-24T00:30:17.852Z,1017.43
2016-12-24T00:30:27.847Z,1017.33
2016-12-24T00:30:37.840Z,1017.37
2016-12-24T00:30:47.837Z,1017.45
2016-12-24T00:30:57.826Z,1017.42
2016-12-24T00:31:07.823Z,1017.36
2016-12-24T00:31:17.818Z,1017.31
2016-12-24T00:31:27.807Z,1017.36
2016-12-24T00:31:37.801Z,1017.33
2016-12-24T00:31:47.797Z,1017.36
2016-12-24T00:31:57.790Z,1017.42
2016-12-24T00:32:07.782Z,1017.36
2016-12-24T00:32:17.781Z,1017.36
2016-12-24T00:32:27.770Z,1017.34
2016-12-24T00:32:37.764Z,1017.43
2016-12-24T00:32:47.760Z,1017.37
2016-12-24T00:32:57.754Z,1017.3
2016-12-24T00:33:07.746Z,1017.29
2016-12-24T00:33:17.875Z,1017.32
2016-12-24T00:33:27.730Z,1017.35
2016-12-24T00:33:37.726Z,1017.28
2016-12-24T00:33:47.722Z,1017.43
2016-12-24T00:33:57.714Z,1017.45
2016-12-24T00:34:07.710Z,1017.33
2016-12-24T00:34:17.703Z,1017.39
2016-12-24T00:34:27.698Z,1017.41
2016-12-24T00:34:37.690Z,1017.41
2016-12-24T00:34:47.681Z,1017.42
2016-12-24T00:34:57.678Z,1017.46
2016-12-24T00:35:07.672Z,1017.43
2016-12-24T00:35:17.665Z,1017.42
2016-12-24T00:35:27.655Z,1017.39
2016-12-24T00:35:37.780Z,1017.36
2016-12-24T00:35:47.647Z,1017.46
2016-12-24T00:35:57.840Z,1017.4
2016-12-24T00:36:07.631Z,1017.33
2016-12-24T00:36:17.626Z,1017.34
2016-12-24T00:36:27.617Z,1017.38
2016-12-24T00:36:37.632Z,1017.4
2016-12-24T00:36:47.605Z,1017.34
2016-12-24T00:36:57.601Z,1017.24
2016-12-24T00:37:07.595Z,1017.29
2016-12-24T00:37:17.605Z,1017.4
2016-12-24T00:37:27.578Z,1017.32
2016-12-24T00:37:37.574Z,1017.33
2016-12-24T00:37:47.571Z,1017.2
2016-12-24T00:37:57.582Z,1017.27
2016-12-24T00:38:07.558Z,1017.27
2016-12-24T00:38:17.550Z,1017.3
2016-12-24T00:38:27.878Z,1017.2
2016-12-24T00:38:37.537Z,1017.36
2016-12-24T00:38:47.527Z,1017.27
2016-12-24T00:38:57.523Z,1017.3
2016-12-24T00:39:07.520Z,1017.31
2016-12-24T00:39:17.515Z,1017.34
2016-12-24T00:39:27.507Z,1017.33
2016-12-24T00:39:37.499Z,1017.35
2016-12-24T00:39:47.492Z,1017.38
2016-12-24T00:39:57.487Z,1017.33
2016-12-24T00:40:07.478Z,1017.32
2016-12-24T00:40:17.475Z,1017.29
2016-12-24T00:40:27.469Z,1017.34
2016-12-24T00:40:37.465Z,1017.35
2016-12-24T00:40:47.456Z,1017.37
2016-12-24T00:40:57.467Z,1017.3
2016-12-24T00:41:07.441Z,1017.29
2016-12-24T00:41:17.437Z,1017.34
2016-12-24T00:41:27.426Z,1017.28
2016-12-24T00:41:37.422Z,1017.35
2016-12-24T00:41:47.416Z,1017.36
2016-12-24T00:41:57.416Z,1017.37
2016-12-24T00:42:07.406Z,1017.3
2016-12-24T00:42:17.397Z,1017.36
2016-12-24T00:42:27.388Z,1017.33
2016-12-24T00:42:37.384Z,1017.38
2016-12-24T00:42:47.379Z,1017.42
2016-12-24T00:42:57.374Z,1017.36
2016-12-24T00:43:07.368Z,1017.38
2016-12-24T00:43:17.359Z,1017.42
2016-12-24T00:43:27.354Z,1017.41
2016-12-24T00:43:37.346Z,1017.33
2016-12-24T00:43:47.362Z,1017.37
2016-12-24T00:43:57.336Z,1017.38
2016-12-24T00:44:07.329Z,1017.4
2016-12-24T00:44:17.318Z,1017.32
2016-12-24T00:44:27.341Z,1017.37
2016-12-24T00:44:37.307Z,1017.35
2016-12-24T00:44:47.324Z,1017.43
2016-12-24T00:44:57.299Z,1017.45
2016-12-24T00:45:07.291Z,1017.38
2016-12-24T00:45:17.282Z,1017.45
2016-12-24T00:45:27.276Z,1017.42
2016-12-24T00:45:37.604Z,1017.55
2016-12-24T00:45:47.267Z,1017.5
2016-12-24T00:45:57.256Z,1017.36
2016-12-24T00:46:07.253Z,1017.39
2016-12-24T00:46:17.249Z,1017.43
2016-12-24T00:46:27.240Z,1017.32
2016-12-24T00:46:37.232Z,1017.35
2016-12-24T00:46:47.229Z,1017.33
2016-12-24T00:46:57.225Z,1017.4
2016-12-24T00:47:07.212Z,1017.41
2016-12-24T00:47:17.211Z,1017.36
2016-12-24T00:47:27.203Z,1017.43
2016-12-24T00:47:37.193Z,1017.48
2016-12-24T00:47:47.186Z,1017.43
2016-12-24T00:47:57.180Z,1017.47
2016-12-24T00:48:07.176Z,1017.39
2016-12-24T00:48:17.172Z,1017.34
2016-12-24T00:48:27.164Z,1017.36
2016-12-24T00:48:37.158Z,1017.29
2016-12-24T00:48:47.150Z,1017.35
2016-12-24T00:48:57.166Z,1017.41
2016-12-24T00:49:07.136Z,1017.41
2016-12-24T00:49:17.132Z,1017.37
2016-12-24T00:49:27.124Z,1017.39
2016-12-24T00:49:37.121Z,1017.39
2016-12-24T00:49:47.113Z,1017.33
2016-12-24T00:49:57.107Z,1017.35
2016-12-24T00:50:07.098Z,1017.35
2016-12-24T00:50:17.095Z,1017.4
2016-12-24T00:50:27.085Z,1017.39
2016-12-24T00:50:37.083Z,1017.29
2016-12-24T00:50:47.073Z,1017.33
2016-12-24T00:50:57.086Z,1017.37
2016-12-24T00:51:07.062Z,1017.42
2016-12-24T00:51:17.057Z,1017.36
2016-12-24T00:51:33.233Z,1017.43
2016-12-24T00:51:43.199Z,1017.47
2016-12-24T00:51:53.193Z,1017.38
2016-12-24T00:52:03.187Z,1017.42
2016-12-24T00:52:13.180Z,1017.44
2016-12-24T00:52:23.175Z,1017.43
2016-12-24T00:52:33.171Z,1017.39
2016-12-24T00:52:43.164Z,1017.34
2016-12-24T00:52:53.491Z,1017.4
2016-12-24T00:53:03.152Z,1017.35
2016-12-24T00:53:13.142Z,1017.32
2016-12-24T00:53:23.140Z,1017.37
2016-12-24T00:53:33.130Z,1017.35
2016-12-24T00:53:43.125Z,1017.32
2016-12-24T00:53:53.118Z,1017.4
2016-12-24T00:54:03.112Z,1017.34
2016-12-24T00:54:13.109Z,1017.28
2016-12-24T00:54:23.100Z,1017.31
2016-12-24T00:54:33.093Z,1017.26
2016-12-24T00:54:43.085Z,1017.28
2016-12-24T00:54:53.085Z,1017.29
2016-12-24T00:55:03.075Z,1017.31
2016-12-24T00:55:13.069Z,1017.26
2016-12-24T00:55:23.060Z,1017.34
2016-12-24T00:55:33.054Z,1017.32
2016-12-24T00:55:43.049Z,1017.24
2016-12-24T00:55:53.040Z,1017.32
2016-12-24T00:56:03.036Z,1017.33
2016-12-24T00:56:13.030Z,1017.36
2016-12-24T00:56:23.023Z,1017.33
2016-12-24T00:56:33.017Z,1017.33
2016-12-24T00:56:43.033Z,1017.29
2016-12-24T00:56:53.008Z,1017.24
2016-12-24T00:57:02.998Z,1017.31
2016-12-24T00:57:12.992Z,1017.38
2016-12-24T00:57:22.998Z,1017.28
2016-12-24T00:57:32.982Z,1017.24
2016-12-24T00:57:42.973Z,1017.28
2016-12-24T00:57:52.965Z,1017.3
2016-12-24T00:58:02.982Z,1017.27
2016-12-24T00:58:12.950Z,1017.3
2016-12-24T00:58:22.950Z,1017.29
2016-12-24T00:58:32.945Z,1017.35
2016-12-24T00:58:42.937Z,1017.32
2016-12-24T00:58:52.931Z,1017.31
2016-12-24T00:59:02.921Z,1017.29
2016-12-24T00:59:12.912Z,1017.23
2016-12-24T00:59:22.909Z,1017.24
2016-12-24T00:59:32.899Z,1017.29
2016-12-24T00:59:42.896Z,1017.36
2016-12-24T00:59:52.894Z,1017.27
2016-12-24T01:00:02.887Z,1017.31
2016-12-24T01:00:12.880Z,1017.31
2016-12-24T01:00:22.873Z,1017.4
2016-12-24T01:00:32.863Z,1017.39
2016-12-24T01:00:42.858Z,1017.23
2016-12-24T01:00:52.854Z,1017.38
2016-12-24T01:01:02.845Z,1017.29
2016-12-24T01:01:12.842Z,1017.35
2016-12-24T01:01:22.836Z,1017.26
2016-12-24T01:01:32.826Z,1017.31
2016-12-24T01:01:42.850Z,1017.22
2016-12-24T01:01:52.813Z,1017.24
2016-12-24T01:02:02.810Z,1017.31
2016-12-24T01:02:12.802Z,1017.36
2016-12-24T01:02:22.799Z,1017.27
2016-12-24T01:02:32.791Z,1017.21
2016-12-24T01:02:42.781Z,1017.34
2016-12-24T01:02:52.778Z,1017.33
2016-12-24T01:03:02.770Z,1017.27
2016-12-24T01:03:12.767Z,1017.31
2016-12-24T01:03:22.759Z,1017.31
2016-12-24T01:03:32.753Z,1017.21
2016-12-24T01:03:42.746Z,1017.27
2016-12-24T01:03:52.741Z,1017.21
2016-12-24T01:04:02.732Z,1017.27
2016-12-24T01:04:12.725Z,1017.3
2016-12-24T01:04:22.722Z,1017.27
2016-12-24T01:04:32.713Z,1017.3
2016-12-24T01:04:42.707Z,1017.35
2016-12-24T01:04:52.704Z,1017.36
2016-12-24T01:05:02.697Z,1017.29
2016-12-24T01:06:16.899Z,1017.3
2016-12-24T01:06:18.168Z,1017.32
2016-12-24T01:06:28.148Z,1017.28
2016-12-24T01:06:38.143Z,1017.34
2016-12-24T01:06:48.138Z,1017.26
2016-12-24T01:09:05.525Z,1017.29
2016-12-24T01:09:15.510Z,1017.28
2016-12-24T01:09:25.500Z,1017.31
2016-12-24T01:09:35.496Z,1017.32
2016-12-24T01:09:45.488Z,1017.37
2016-12-24T01:09:55.479Z,1017.33
2016-12-24T01:10:05.474Z,1017.32
2016-12-24T01:10:15.471Z,1017.32
2016-12-24T01:10:25.463Z,1017.32
2016-12-24T01:10:35.455Z,1017.34
2016-12-24T01:10:45.451Z,1017.19
2016-12-24T01:10:55.444Z,1017.32
2016-12-24T01:11:05.439Z,1017.34
2016-12-24T01:11:15.430Z,1017.32
2016-12-24T01:11:25.422Z,1017.4
2016-12-24T01:11:35.420Z,1017.35
2016-12-24T01:11:45.411Z,1017.34
2016-12-24T01:11:55.404Z,1017.35
2016-12-24T01:12:05.737Z,1017.35
2016-12-24T01:12:15.391Z,1017.47
2016-12-24T01:12:25.386Z,1017.42
2016-12-24T01:12:35.380Z,1017.44
2016-12-24T01:12:45.372Z,1017.36
2016-12-24T01:12:55.706Z,1017.39
2016-12-24T01:13:05.360Z,1017.34
2016-12-24T01:13:15.352Z,1017.31
2016-12-24T01:13:25.352Z,1017.34
2016-12-24T01:13:35.341Z,1017.41
2016-12-24T01:13:45.334Z,1017.38
2016-12-24T01:13:55.329Z,1017.32
2016-12-24T01:14:05.325Z,1017.33
2016-12-24T01:14:15.319Z,1017.39
2016-12-24T01:14:25.311Z,1017.39
2016-12-24T01:14:35.304Z,1017.34
2016-12-24T01:14:45.297Z,1017.34
2016-12-24T01:14:55.291Z,1017.36
2016-12-24T01:15:05.285Z,1017.4
2016-12-24T01:15:15.278Z,1017.42
2016-12-24T01:15:25.271Z,1017.29
2016-12-24T01:15:35.263Z,1017.33
2016-12-24T01:15:45.270Z,1017.35
2016-12-24T01:15:55.251Z,1017.34
2016-12-24T01:16:05.245Z,1017.38
2016-12-24T01:16:15.239Z,1017.38
2016-12-24T01:16:25.234Z,1017.38
2016-12-24T01:16:35.230Z,1017.44
2016-12-24T01:16:45.226Z,1017.35
2016-12-24T01:16:55.219Z,1017.42
2016-12-24T01:17:05.206Z,1017.35
2016-12-24T01:17:15.201Z,1017.4
2016-12-24T01:17:25.197Z,1017.47
2016-12-24T01:17:35.190Z,1017.47
2016-12-24T01:17:45.182Z,1017.43
2016-12-24T01:17:55.180Z,1017.43
2016-12-24T01:18:05.171Z,1017.45
2016-12-24T01:18:15.167Z,1017.44
2016-12-24T01:18:25.155Z,1017.42
2016-12-24T01:18:35.151Z,1017.4
2016-12-24T01:18:45.147Z,1017.42
2016-12-24T01:18:55.143Z,1017.43
2016-12-24T01:19:05.132Z,1017.45
2016-12-24T01:19:15.125Z,1017.48
2016-12-24T01:19:25.118Z,1017.44
2016-12-24T01:19:35.115Z,1017.5
2016-12-24T01:19:45.107Z,1017.42
2016-12-24T01:19:55.101Z,1017.45
2016-12-24T01:20:05.094Z,1017.45
2016-12-24T01:20:15.090Z,1017.46
2016-12-24T01:20:25.082Z,1017.42
2016-12-24T01:20:35.078Z,1017.42
2016-12-24T01:20:45.072Z,1017.47
2016-12-24T01:20:55.079Z,1017.48
2016-12-24T01:21:05.055Z,1017.46
2016-12-24T01:21:15.053Z,1017.46
2016-12-24T01:21:25.049Z,1017.46
2016-12-24T01:21:35.042Z,1017.42
2016-12-24T01:21:45.032Z,1017.46
2016-12-24T01:21:55.028Z,1017.5
2016-12-24T01:22:05.016Z,1017.49
2016-12-24T01:22:15.012Z,1017.49
2016-12-24T01:22:25.007Z,1017.44
2016-12-24T01:22:35.000Z,1017.5
2016-12-24T01:22:44.993Z,1017.47
2016-12-24T01:22:54.986Z,1017.44
2016-12-24T01:23:04.982Z,1017.48
2016-12-24T01:23:14.976Z,1017.52
2016-12-24T01:23:24.968Z,1017.47
2016-12-24T01:23:34.963Z,1017.4
2016-12-24T01:23:45.291Z,1017.53
2016-12-24T01:23:54.951Z,1017.43
2016-12-24T01:24:04.945Z,1017.47
2016-12-24T01:24:14.937Z,1017.49
2016-12-24T01:24:24.929Z,1017.45
2016-12-24T01:24:34.921Z,1017.39
2016-12-24T01:24:44.920Z,1017.42
2016-12-24T01:24:54.915Z,1017.41
2016-12-24T01:25:04.904Z,1017.44
2016-12-24T01:25:14.897Z,1017.47
2016-12-24T01:25:24.891Z,1017.54
2016-12-24T01:25:34.886Z,1017.47
2016-12-24T01:25:44.880Z,1017.53
2016-12-24T01:25:54.872Z,1017.5
2016-12-24T01:26:04.869Z,1017.43
2016-12-24T01:26:14.863Z,1017.49
2016-12-24T01:26:24.851Z,1017.44
2016-12-24T01:26:34.850Z,1017.46
2016-12-24T01:26:44.838Z,1017.46
2016-12-24T01:26:54.833Z,1017.47
2016-12-24T01:27:04.828Z,1017.49
2016-12-24T01:27:14.824Z,1017.57
2016-12-24T01:27:24.816Z,1017.5
2016-12-24T01:27:34.808Z,1017.48
2016-12-24T01:27:44.802Z,1017.55
2016-12-24T01:27:54.796Z,1017.49
2016-12-24T01:28:04.792Z,1017.5
2016-12-24T01:28:14.786Z,1017.51
2016-12-24T01:28:24.782Z,1017.53
2016-12-24T01:28:34.774Z,1017.51
2016-12-24T01:28:44.763Z,1017.48
2016-12-24T01:28:54.760Z,1017.49
2016-12-24T01:29:04.750Z,1017.49
2016-12-24T01:29:14.744Z,1017.58
2016-12-24T01:29:24.743Z,1017.54
2016-12-24T01:29:34.733Z,1017.49
2016-12-24T01:29:44.729Z,1017.57
2016-12-24T01:29:54.723Z,1017.54
2016-12-24T01:30:04.718Z,1017.55
2016-12-24T01:30:14.709Z,1017.54
2016-12-24T01:30:24.702Z,1017.56
2016-12-24T01:30:34.696Z,1017.51
2016-12-24T01:30:44.690Z,1017.5
2016-12-24T01:30:54.682Z,1017.47
2016-12-24T01:31:04.674Z,1017.49
2016-12-24T01:31:14.669Z,1017.49
2016-12-24T01:31:24.661Z,1017.54
2016-12-24T01:31:34.657Z,1017.56
2016-12-24T01:31:44.652Z,1017.62
2016-12-24T01:31:54.644Z,1017.65
2016-12-24T01:32:04.645Z,1017.65
2016-12-24T01:32:14.635Z,1017.59
2016-12-24T01:32:24.649Z,1017.49
2016-12-24T01:32:34.622Z,1017.52
2016-12-24T01:32:44.613Z,1017.47
2016-12-24T01:32:54.605Z,1017.55
2016-12-24T01:33:04.601Z,1017.53
2016-12-24T01:33:14.593Z,1017.56
2016-12-24T01:33:24.591Z,1017.56
2016-12-24T01:33:34.584Z,1017.51
2016-12-24T01:33:44.577Z,1017.5
2016-12-24T01:33:54.568Z,1017.58
2016-12-24T01:34:04.564Z,1017.51
2016-12-24T01:34:14.556Z,1017.45
2016-12-24T01:34:24.551Z,1017.47
2016-12-24T01:34:34.545Z,1017.5
2016-12-24T01:34:44.538Z,1017.56
2016-12-24T01:34:54.529Z,1017.5
2016-12-24T01:35:04.521Z,1017.52
2016-12-24T01:35:14.651Z,1017.5
2016-12-24T01:35:24.510Z,1017.53
2016-12-24T01:35:34.507Z,1017.48
2016-12-24T01:35:44.498Z,1017.46
2016-12-24T01:35:54.490Z,1017.51
2016-12-24T01:36:04.489Z,1017.54
2016-12-24T01:36:14.476Z,1017.53
2016-12-24T01:36:24.471Z,1017.52
2016-12-24T01:36:34.471Z,1017.54
2016-12-24T01:36:44.462Z,1017.49
2016-12-24T01:36:54.456Z,1017.52
2016-12-24T01:37:04.448Z,1017.49
2016-12-24T01:37:14.443Z,1017.56
2016-12-24T01:37:24.438Z,1017.51
2016-12-24T01:37:34.427Z,1017.52
2016-12-24T01:37:44.422Z,1017.55
2016-12-24T01:37:54.418Z,1017.54
2016-12-24T01:38:04.408Z,1017.46
2016-12-24T01:38:14.407Z,1017.5
2016-12-24T01:38:24.395Z,1017.48
2016-12-24T01:38:34.393Z,1017.46
2016-12-24T01:38:44.384Z,1017.49
2016-12-24T01:38:54.380Z,1017.45
2016-12-24T01:39:04.374Z,1017.56
2016-12-24T01:39:14.372Z,1017.47
2016-12-24T01:39:24.362Z,1017.44
2016-12-24T01:39:34.355Z,1017.49
2016-12-24T01:39:44.692Z,1017.44
2016-12-24T01:39:54.340Z,1017.54
2016-12-24T01:40:04.335Z,1017.41
2016-12-24T01:40:14.354Z,1017.47
2016-12-24T01:40:24.324Z,1017.53
2016-12-24T01:40:34.318Z,1017.51
2016-12-24T01:40:44.310Z,1017.52
2016-12-24T01:40:54.300Z,1017.56
2016-12-24T01:41:04.293Z,1017.51
2016-12-24T01:41:14.290Z,1017.44
2016-12-24T01:41:24.286Z,1017.44
2016-12-24T01:41:34.278Z,1017.42
2016-12-24T01:41:44.271Z,1017.39
2016-12-24T01:41:54.267Z,1017.44
2016-12-24T01:42:04.262Z,1017.49
2016-12-24T01:42:14.252Z,1017.46
2016-12-24T01:42:24.246Z,1017.41
2016-12-24T01:42:34.241Z,1017.43
2016-12-24T01:42:44.231Z,1017.5
2016-12-24T01:42:54.230Z,1017.48
2016-12-24T01:43:04.223Z,1017.49
2016-12-24T01:43:14.214Z,1017.5
2016-12-24T01:43:24.207Z,1017.52
2016-12-24T01:43:34.204Z,1017.52
2016-12-24T01:43:44.193Z,1017.45
2016-12-24T01:43:54.186Z,1017.42
2016-12-24T01:44:04.181Z,1017.46
2016-12-24T01:44:14.177Z,1017.44
2016-12-24T01:44:24.169Z,1017.46
2016-12-24T01:44:34.167Z,1017.43
2016-12-24T01:44:44.155Z,1017.43
2016-12-24T01:44:54.152Z,1017.48
2016-12-24T01:45:04.146Z,1017.46
2016-12-24T01:45:14.140Z,1017.48
2016-12-24T01:45:24.132Z,1017.6
2016-12-24T01:45:34.126Z,1017.53
2016-12-24T01:45:44.116Z,1017.52
2016-12-24T01:45:54.113Z,1017.49
2016-12-24T01:46:04.104Z,1017.52
2016-12-24T01:46:14.102Z,1017.49
2016-12-24T01:46:24.094Z,1017.5
2016-12-24T01:46:34.085Z,1017.47
2016-12-24T01:46:44.084Z,1017.48
2016-12-24T01:46:54.077Z,1017.46
2016-12-24T01:47:04.068Z,1017.49
2016-12-24T01:47:14.063Z,1017.49
2016-12-24T01:47:24.054Z,1017.48
2016-12-24T01:47:34.047Z,1017.48
2016-12-24T01:47:44.042Z,1017.47
2016-12-24T01:47:54.036Z,1017.47
2016-12-24T01:48:04.033Z,1017.44
2016-12-24T01:48:14.023Z,1017.43
2016-12-24T01:48:24.015Z,1017.44
2016-12-24T01:48:34.012Z,1017.41
2016-12-24T01:48:44.006Z,1017.41
2016-12-24T01:48:53.997Z,1017.4
2016-12-24T01:49:03.995Z,1017.47
2016-12-24T01:49:13.988Z,1017.45
2016-12-24T01:49:23.981Z,1017.44
2016-12-24T01:49:33.976Z,1017.36
2016-12-24T01:49:43.969Z,1017.36
2016-12-24T01:49:53.962Z,1017.48
2016-12-24T01:50:03.958Z,1017.49
2016-12-24T01:50:13.948Z,1017.44
2016-12-24T01:50:23.944Z,1017.44
2016-12-24T01:50:33.935Z,1017.43
2016-12-24T01:50:43.929Z,1017.45
2016-12-24T01:50:53.924Z,1017.44
2016-12-24T01:51:03.920Z,1017.4
2016-12-24T01:51:13.910Z,1017.47
2016-12-24T01:51:23.904Z,1017.41
2016-12-24T01:51:33.898Z,1017.45
2016-12-24T01:51:43.892Z,1017.43
2016-12-24T01:51:53.883Z,1017.46
2016-12-24T01:52:03.879Z,1017.4
2016-12-24T01:52:13.872Z,1017.42
2016-12-24T01:52:23.867Z,1017.43
2016-12-24T01:52:33.864Z,1017.47
2016-12-24T01:52:43.852Z,1017.52
2016-12-24T01:52:53.848Z,1017.49
2016-12-24T01:53:03.863Z,1017.45
2016-12-24T01:53:13.834Z,1017.41
2016-12-24T01:53:23.828Z,1017.42
2016-12-24T01:53:33.822Z,1017.42
2016-12-24T01:53:43.816Z,1017.49
2016-12-24T01:53:53.811Z,1017.45
2016-12-24T01:54:03.805Z,1017.45
2016-12-24T01:54:13.794Z,1017.42
2016-12-24T01:54:23.788Z,1017.39
2016-12-24T01:54:33.789Z,1017.42
2016-12-24T01:54:43.780Z,1017.42
2016-12-24T01:54:53.775Z,1017.41
2016-12-24T01:55:04.105Z,1017.5
2016-12-24T01:55:13.759Z,1017.48
2016-12-24T01:55:23.751Z,1017.44
2016-12-24T01:55:33.746Z,1017.44
2016-12-24T01:55:43.739Z,1017.42
2016-12-24T01:55:53.734Z,1017.41
2016-12-24T01:56:03.726Z,1017.44
2016-12-24T01:56:13.721Z,1017.47
2016-12-24T01:56:23.718Z,1017.46
2016-12-24T01:56:33.711Z,1017.41
2016-12-24T01:56:43.699Z,1017.44
2016-12-24T01:56:53.697Z,1017.39
2016-12-24T01:57:03.686Z,1017.44
2016-12-24T01:57:13.682Z,1017.47
2016-12-24T01:57:23.675Z,1017.43
2016-12-24T01:57:33.671Z,1017.45
2016-12-24T01:57:43.661Z,1017.4
2016-12-24T01:57:53.656Z,1017.45
2016-12-24T01:58:03.649Z,1017.41
2016-12-24T01:58:13.644Z,1017.43
2016-12-24T01:58:23.641Z,1017.43
2016-12-24T01:58:33.634Z,1017.45
2016-12-24T01:58:43.628Z,1017.4
2016-12-24T01:58:53.619Z,1017.44
2016-12-24T01:59:03.615Z,1017.38
2016-12-24T01:59:13.607Z,1017.43
2016-12-24T01:59:23.602Z,1017.41
2016-12-24T01:59:33.592Z,1017.43
2016-12-24T01:59:43.587Z,1017.48
2016-12-24T01:59:53.584Z,1017.46
2016-12-24T02:00:03.580Z,1017.47
2016-12-24T02:00:13.571Z,1017.46
2016-12-24T02:00:23.561Z,1017.54
2016-12-24T02:00:33.554Z,1017.48
2016-12-24T02:00:43.549Z,1017.45
2016-12-24T02:00:53.544Z,1017.49
2016-12-24T02:01:03.538Z,1017.51
2016-12-24T02:01:13.532Z,1017.45
2016-12-24T02:01:23.526Z,1017.47
2016-12-24T02:01:33.883Z,1017.52
2016-12-24T02:01:43.512Z,1017.45
2016-12-24T02:01:53.505Z,1017.48
2016-12-24T02:02:03.499Z,1017.36
2016-12-24T02:02:13.490Z,1017.42
2016-12-24T02:02:23.489Z,1017.35
2016-12-24T02:02:33.484Z,1017.51
2016-12-24T02:02:43.469Z,1017.4
2016-12-24T02:02:53.466Z,1017.41
2016-12-24T02:03:03.458Z,1017.38
2016-12-24T02:03:13.456Z,1017.38
2016-12-24T02:03:23.452Z,1017.41
2016-12-24T02:03:33.446Z,1017.44
2016-12-24T02:03:43.432Z,1017.38
2016-12-24T02:03:53.428Z,1017.28
2016-12-24T02:04:03.424Z,1017.41
2016-12-24T02:04:13.416Z,1017.4
2016-12-24T02:04:23.411Z,1017.39
2016-12-24T02:04:33.401Z,1017.39